CDT,Max TemperatureF,Mean TemperatureF,Min TemperatureF,Max Dew PointF,MeanDew PointF,Min DewpointF,Max Humidity, Mean Humidity, Min Humidity, Max Sea Level PressureIn, Mean Sea Level PressureIn, Min Sea Level PressureIn, Max VisibilityMiles, Mean VisibilityMiles, Min VisibilityMiles, Max Wind SpeedMPH, Mean Wind SpeedMPH, Max Gust SpeedMPH,PrecipitationIn, CloudCover, Events, WindDirDegrees
2012-3-1,35,33,30,30,29,27,92,84,75,29.85,29.79,29.73,10,8,6,20,6,23,T,8,,254
2012-3-2,37,32,27,30,26,20,100,82,64,29.78,29.70,29.65,10,8,5,29,14,37,T,7,,314
2012-3-3,29,24,19,23,17,14,84,74,63,29.93,29.83,29.69,10,9,4,33,21,38,T,7,Snow,304
2012-3-4,25,18,10,21,15,9,88,80,71,30.17,29.96,29.88,10,6,0,16,8,21,0.04,5,Fog-Snow,314
2012-3-5,36,24,12,28,20,10,92,81,70,30.29,30.16,29.94,10,8,5,26,12,33,0.00,2,,186
2012-3-6,66,48,30,47,35,24,85,67,48,29.90,29.70,29.60,10,10,10,28,14,35,0.00,0,,175
2012-3-7,57,43,28,50,36,23,93,83,72,29.99,29.73,29.60,10,8,2,29,16,35,0.01,6,Rain,270
2012-3-8,41,32,22,27,21,15,88,68,48,30.42,30.21,29.99,10,10,10,29,19,37,0.00,2,,300
2012-3-9,37,28,18,21,13,7,67,51,35,30.62,30.48,30.26,10,10,10,25,11,30,0.00,0,,119
2012-3-10,66,49,32,30,27,22,70,45,20,30.22,30.09,30.01,10,10,10,35,19,40,0.00,0,,207
2012-3-11,62,48,33,49,38,28,93,66,39,30.09,29.92,29.73,10,8,2,21,12,24,0.39,4,Rain,162
2012-3-12,57,48,39,49,45,37,93,77,61,29.94,29.72,29.67,10,8,2,22,11,26,0.06,7,Rain,207
2012-3-13,69,50,30,46,36,28,100,66,32,30.07,30.00,29.87,10,6,0,21,9,26,0.00,0,Fog,172
2012-3-14,78,62,45,57,50,42,93,68,43,29.90,29.82,29.78,10,9,6,23,10,29,0.00,1,,223
2012-3-15,74,55,35,46,41,33,86,60,33,30.04,29.97,29.90,10,10,8,13,4,15,0.00,0,,248
2012-3-16,81,62,42,59,50,41,96,66,36,29.96,29.91,29.82,10,7,2,22,8,29,0.00,1,,174
2012-3-17,81,67,53,60,57,52,100,73,45,29.86,29.82,29.76,10,9,4,28,15,35,0.00,3,,172
2012-3-18,81,70,59,58,56,53,87,65,42,29.85,29.79,29.72,10,10,9,31,18,38,0.00,4,,167
2012-3-19,79,69,58,61,58,55,97,72,47,29.78,29.71,29.60,10,8,0,47,17,63,0.48,6,Fog-Rain-Thunderstorm,170
2012-3-20,65,60,55,58,55,52,93,78,63,29.90,29.85,29.72,10,9,5,15,8,20,0.10,7,Rain,155
2012-3-21,66,61,56,58,57,55,100,87,73,30.03,29.99,29.91,10,9,6,13,7,15,0.02,7,Rain,165
2012-3-22,69,61,53,61,57,52,93,86,78,30.02,29.97,29.93,10,8,2,17,8,21,0.13,7,Rain,139
2012-3-23,70,58,46,54,49,45,100,70,40,29.98,29.94,29.86,10,5,0,12,5,18,0.00,4,Fog,327
2012-3-24,71,59,47,56,53,47,100,80,59,30.04,29.94,29.87,10,6,0,15,8,20,0.00,5,Fog,335
2012-3-25,65,55,45,49,44,38,100,72,43,30.16,30.11,30.04,10,8,4,18,10,23,0.00,4,,4
2012-3-26,53,48,42,40,36,30,83,65,46,30.23,30.15,29.94,10,10,2,35,22,43,0.19,5,Rain-Thunderstorm,111
2012-3-27,74,59,43,53,40,30,77,51,25,29.93,29.79,29.71,10,10,10,33,22,40,0.00,2,,220
2012-3-28,61,51,41,40,36,35,79,60,40,30.06,30.00,29.89,10,10,10,22,11,28,0.00,0,,323
2012-3-29,66,53,39,45,39,34,80,59,37,30.06,29.91,29.77,10,8,1,28,16,32,0.96,3,Rain-Thunderstorm,117
2012-3-30,55,49,42,47,44,41,100,89,77,29.88,29.80,29.72,9,5,1,20,6,23,0.03,8,Rain-Thunderstorm,97
2012-3-31,53,48,43,50,44,41,100,92,83,29.89,29.83,29.71,6,2,0,21,14,26,0.00,7,Fog,133